West Middlesex, Pennsylvania
Current Conditions -  °F | °C
As of 7:51 PM on Monday 22 Dec 2014 (Local Time) from KYNG Reporting Station
Overcast Overcast  
Wind Chill: 28°   Ceiling: 17000
Heat Index: 36°   Visibility: 9mi
Dew Point: 28°   Wind: 13mph
Humidity: 73%   Direction: 110°ESE
Pressure: 29.95"   Gusts: NA
Location:  41.17°N, 80.45°W
Report Text: KYNG 230051Z 11011KT 9SM FEW140 SCT150 OVC170 02/M02 A2995 RMK AO2 SLP156 T00221022
Loading
Personal Weather Stations






























Interactive Weather Map New forecast layout! Learn more

10-Day Weather Forecast

Advertisements
Track Severe Weather on mobile